Create Custom Reports and Graphics: Custom Report

North/Central Map

Map

15 Minute Data

South County Map

Map

15 Minute Data

Northern Sonoma County Latest

13 Stations

15 Minute Data | America/Los_Angeles
as of 6/19/19 10:18 AM PDT
Station Date Time Temp (°F) RH (%) Dew Pt (°F) Wind Spd (mph) Wind Dir (°) Wind Gust (mph) Latest Rain (In) Daily Rain (In) Daily Min Temp (°F) Daily Max Temp (°F)
Cooley-Rockpile 6/19/19 1000 66.2   17.6 66   19 54.7   7.0 1.5 SSE | 156 3.9   1.5 0.00 0.00 58.4   6.0 69.6   15.2
Cooley Lower Remote 6/19/19 0745 54.1   16.4 100   36 54.1   3.5 0.3 SW | 226 1.8   0.4 0.00 0.00 51.7   7.4 59.7   14.1
Rancho Alexander-Cloverdale 6/19/19 1015 64.1   9.7 74   15 55.6   3.1 3.4 S | 189 9.2   3.4 0.00 0.00 53.6   0.9 65.2   9.9
Ranch 38 (Cloverdale-SE) 6/19/19 1015 61.3   10.2 81   18 55.5   2.8 8.0 S | 184 12.4   1.9 0.00 0.00 53.0   2.5 62.1   10.8
Hoffman - Geyserville 6/19/19 1015 62.2   9.2 75   15 54.3   2.8 3.1 SE | 136 6.5   0.2 0.00 0.00 54.4   3.6 62.9   9.5
Geyserville Ranch 3 6/19/19 1015 64.8   8.1 71   13 55.1   2.0 3.4 E | 100 7.2   0.1 0.00 0.00 55.0   2.1 65.5   7.7
Ranch 40 (Geyserville-NE) 6/19/19 1015 62.6   7.3 79   14 56.0   1.7 5.7 S | 190 10.5   0.1 0.00 0.00 52.7   2.0 64.2   6.9
Geyserville - S (Nervo Station) 6/19/19 1015 64.1   7.3 71   13 54.7   1.4 2.8 ESE | 109 6.8   0.7 0.00 0.00 54.0   1.0 65.5   7.2
River Oaks (Lytton) 6/19/19 1015 64.5   9.7 72   17 55.2   1.8 2.5 E | 80 6.3   1.9 0.00 0.00 53.8   3.0 65.8   9.1
Piccolo - Alexander Valley 6/19/19 1015 62.9   8.6 71   14 53.4   1.9 2.3 SE | 125 5.7   1.1 0.00 0.00 54.5   3.3 63.4   8.5
Red Fan 6/19/19 1015 63.4   10.5 75   19 55.2   2.1 2.3 S | 177 6.4   2.2 0.00 0.00 54.9   3.3 64.8   9.6
Landslide 6/19/19 1015 62.2   10.3 76   18 54.6   2.4 1.9 SE | 136 5.1   1.0 0.00 0.00 54.4   3.5 63.0   10.3
Dry Creek Valley 6/19/19 1015 63.8   5.8 72   10 54.5   1.3 3.4 SE | 139 7.1   0.1 0.00 0.00 54.5   2.7 64.3   6.1
Max     66.2 81 56.0 8.0 - 12.4 0.00 0.00 58.4 69.6
Avg     63.5 74 54.9 3.4 - 7.2 0.00 - - -
Min     61.3 66 53.4 1.5 - 3.9 0.00 0.00 52.7 62.1

Central Sonoma County Latest

22 Stations

15 Minute Data | America/Los_Angeles
as of 6/19/19 10:18 AM PDT
Station Date Time Temp (°F) RH (%) Dew Pt (°F) Wind Spd (mph) Wind Dir (°) Wind Gust (mph) Latest Rain (In) Daily Rain (In) Daily Min Temp (°F) Daily Max Temp (°F)
Healdsburg - S (Sodini) 6/19/19 1015 65.2   6.3 69   11 54.7   1.2 2.6 SE | 131 6.4   0.7 0.00 0.00 53.8   3.2 66.0   6.3
Ranch 8 (Windsor-NW) 6/19/19 1015 63.2   7.8 78   13 56.4   2.2 3.3 S | 171 13.9   7.0 0.00 0.00 53.9   0.3 64.1   7.8
Foothill Ranch 16 6/19/19 1015 62.7   5.5 75   11 54.9   0.9 2.3 SSW | 200 6.8   0.3 0.00 0.00 54.7   4.2 63.3   5.5
Airport Ranch 14 6/19/19 1015 62.6   4.7 76   10 55.1   0.7 1.6 S | 187 4.3   3.2 0.00 0.00 54.5   3.2 63.4   4.8
Silk Road 6/19/19 1015 63.2   5.7 75   12 55.3   0.6 2.9 WSW | 244 7.2   2.1 0.00 0.00 54.1   3.2 64.2   5.1
Oak Meadows Ranch 5 6/19/19 1015 63.0   5.2 76   11 55.2   0.6 2.9 S | 183 6.4   0.4 0.00 0.00 54.5   3.8 63.5   5.5
Laughlin Rd (Windsor-South) 6/19/19 1015 64.1   5.0 72   9 54.8   0.9 - - - 0.00 0.00 54.5   2.9 64.5   5.7
Barnes Rd (SE Fulton) 6/19/19 1015 61.0   4.8 79   11 54.5   0.7 2.7 W | 260 7.1   0.8 0.00 0.00 54.3   3.3 61.8   4.6
Crinella Ranch 21 6/19/19 1015 62.4   4.3 76   8 54.8   0.9 3.3 SSW | 213 6.7   1.0 0.00 0.00 54.8   3.4 62.7   4.9
Denner Ranch Base 6/19/19 1015 61.5   4.4 79   9 55.1   0.7 5.3 SSW | 198 9.4   1.1 0.00 0.00 54.3   3.8 62.1   4.5
Guerneville Road (Santa Rosa Plains) 6/19/19 1015 60.0   4.5 82   11 54.7   0.5 6.0 SW | 224 9.3   2.8 0.00 0.00 55.5   5.4 60.6   5.0
Rich Ranch (Guerneville Rd) 6/19/19 1015 62.4   5.6 77   12 55.1   0.7 - - - - - 55.4   5.3 62.7   5.5
Occidental Rd (Sebastopol) 6/19/19 1015 60.4   5.6 80   11 54.0   1.2 3.9 WSW | 251 10.1   1.8 0.00 0.00 55.2   5.4 60.9   5.8
Garrison Ranch 12 6/19/19 1015 63.7   6.7 - - 3.3 SSW | 202 7.4   1.2 0.00 0.00 52.8   1.4 64.6   6.4
Laughlin Rd (Guerneville) 6/19/19 1015 64.1   6.5 72   11 54.8   1.6 4.8 S | 180 9.4   2.7 0.00 0.00 53.0   3.1 64.8   6.1
Korbel Winery 6/19/19 1015 63.4   7.7 74   15 55.0   1.0 2.8 WSW | 250 9.2   4.0 0.00 0.00 55.4   3.0 65.0   7.4
Shone Farms (Forestville) 6/19/19 1015 63.0   6.4 77   12 55.5   1.6 2.5 WSW | 256 7.9   2.5 0.00 0.00 53.4   1.0 64.2   7.4
Ranch 30 (Forestville-NE) 6/19/19 1015 63.5   8.6 76   16 55.9   1.8 3.5 WNW | 293 7.6   2.4 0.00 0.00 53.4   2.1 64.2   9.2
Dutton Ranch (Graton-West) 6/19/19 1015 62.0   7.4 85   20 57.6   0.5 2.7 SW | 214 6.0   0.7 0.00 0.00 55.4   5.6 62.9   8.3
Mill Station Rd (Graton-South) 6/19/19 1015 57.9   3.7 90   10 55.2   0.6 4.3 SW | 235 10.7   0.2 0.00 0.00 54.4   5.5 58.6   3.4
Burnside Road (Sebastopol Hills) 6/19/19 1015 55.6   2.8 100   11 55.5   0.6 4.0 W | 276 9.4   2.3 0.00 0.00 52.8   1.6 55.9   3.0
Hirsch Vineyards 6/19/19 1015 60.1   7.0 83   15 55.0   1.1 2.9 WSW | 248 4.0   1.0 0.00 0.00 48.5   9.6 61.5   13.4
Max     65.2 100 57.6 6.0 - 13.9 0.00 0.00 55.5 66.0
Avg     62.0 79 55.2 3.4 - 8.0 0.00 - - -
Min     55.6 69 54.0 1.6 - 4.0 0.00 0.00 48.5 55.9

Southern Sonoma County Latest

14 Stations

15 Minute Data | America/Los_Angeles
as of 6/19/19 10:18 AM PDT
Station Date Time Temp (°F) RH (%) Dew Pt (°F) Wind Spd (mph) Wind Dir (°) Wind Gust (mph) Latest Rain (In) Daily Rain (In) Daily Min Temp (°F) Daily Max Temp (°F)
Lower Bennett Valley 6/19/19 1015 60.2   9.8 83   21 54.9   1.3 3.4 NW | 322 8.3   1.6 0.00 0.00 53.6   5.2 60.8   9.9
Kunde - Kenwood 6/19/19 1000 57.9   11.9 82   23 52.4   2.3 3.4 NW | 326 9.2   1.8 0.00 0.00 52.2   2.2 58.8   12.0
Sonoma Valley (Bedrock) 6/19/19 1015 64.1   10.3 68   17 53.2   1.6 3.8 NW | 316 9.1   4.4 0.00 0.00 53.8   2.8 64.8   10.4
Arnold (Sonoma) 6/19/19 1015 64.7   7.1 71   12 55.2   1.8 3.2 NW | 309 9.0   2.8 0.00 0.00 54.0   2.4 65.2   7.7
Schellville 6/19/19 1015 65.3   5.8 73   12 56.2   0.6 2.3 W | 262 7.4   1.3 0.00 0.00 54.5   1.5 66.5   5.3
Napoli (Sonoma-SE) 6/19/19 1015 67.1   4.6 65   8 55.2   0.9 3.0 W | 259 6.1   1.3 0.00 0.00 53.0   1.8 67.6   5.1
Diamond R71 (Carneros) 6/19/19 1015 64.2   7.2 74   14 55.7   1.0 6.8 WSW | 257 12.7   5.7 0.00 0.00 53.0   0.9 65.3   6.8
Huichica Upper 6/19/19 1015 64.4   5.7 73   13 55.6   0.2 7.6 WSW | 247 12.0   3.7 - - 53.0   1.5 65.2   5.5
Huichica-Lower 6/19/19 1015 64.7   5.6 75   12 56.5   0.5 3.0 WSW | 253 7.2   0.2 0.00 0.00 53.3   1.3 65.0   5.8
Stony Point (West Rohnert Park) 6/19/19 1015 58.8   4.2 89   11 55.5   0.7 3.1 NW | 307 5.7   3.1 0.00 0.00 54.4   5.5 59.2   4.9
Asellus (Penngrove) 6/19/19 1015 59.4   6.3 87   16 55.5   0.6 5.1 NNW | 328 8.2   0.4 0.00 0.00 54.3   4.6 59.8   6.6
Rodger's Creek 6/19/19 1015 59.2   6.6 85   16 54.8   0.8 7.7 W | 272 14.6   5.0 0.00 0.00 52.2   1.2 60.0   6.6
Frates R10 (East Petaluma) 6/19/19 1015 61.5   8.4 79   18 54.8   0.8 4.4 WNW | 292 11.0   1.0 0.00 0.00 55.1   4.6 62.0   8.9
Sleepy Hollow-Lakeville 6/19/19 1015 63.6   5.8 74   13 55.4   0.2 5.2 NW | 326 11.7   5.0 0.00 0.00 55.3   2.1 64.6   5.9
Max     67.1 89 56.5 7.7 - 14.6 0.00 0.00 55.3 67.6
Avg     62.5 77 55.1 4.4 - 9.5 0.00 - - -
Min     57.9 65 52.4 2.3 - 5.7 0.00 0.00 52.2 58.8